Alicia, AR (72410)

11:17 PM CDT on July 31, 2014 (GMT -0500)
Walnut Ridge Regional (KARG) Elev 272 ft | 36.12 °N, 90.93 °W | Change Station

Current weather conditions updated 22 minutes ago

Clear
Clear
72 °F
Feels Like 72 °F
N
0
Wind Variable Wind from North

Tomorrow is forecast to be Much Warmer than today. Showers and thunderstorms late.

Today
High -- | Low -- °F
--% Chance of Precip.
Yesterday
High -- | Low -- °F
Precip. -- in
6:10 AM 8:09 PM
Waxing Crescent, 23% visible
Pressure 30.07 in
Visibility 10.0 miles
Clouds Clear
Dew Point 66 °F
Humidity 83%
Rainfall 0.13 in
Snow Depth Not available.
UV 0 out of 12
Pollen 4.50 out of 12
Air Quality Not available.
Flu Activity Not available.
METAR KARG 010355Z AUTO 00000KT 10SM CLR 22/19 A3007 RMK AO1

More Conditions Fewer Conditions

Pressure 30.07 in
Visibility 10.0 miles
Clouds Clear
Dew Point 66 °F
Humidity 83%
Rainfall 0.13 in
Snow Depth Not available.
UV 0 out of 12
Pollen 4.50 out of 12
Air Quality Not available.
Flu Activity Not available.
METAR KARG 010355Z AUTO 00000KT 10SM CLR 22/19 A3007 RMK AO1

More Conditions Fewer Conditions

10-Day Weather Forecast

Almanac

Astronomy

Jul. 31, 2014 Rise Set
Actual Time 6:10 AM CDT 8:09 PM CDT
Civil Twilight 5:41 AM CDT 8:37 PM CDT
Nautical Twilight 5:07 AM CDT 9:12 PM CDT
Astronomical Twilight 4:29 AM CDT 9:49 PM CDT
Moon 10:27 AM CDT (7/31) 10:33 PM CDT (7/31)
Length of Visible Light 14h 56m
Length of Day
13h 59m
Tomorrow will be 1m 41s shorter.
Waxing Crescent, 23% of the Moon is Illuminated
Aug 1
Waxing Crescent
Aug 3
First Quarter
Aug 10
Full
Aug 17
Last Quarter
Aug 25
New

Today's Extremes

State Highs State Lows

Community

WunderPhotos

Upload Photos

1,739,509 photos uploaded!

Nearby

Snow Depth

Station Depth Elevation
No new snow has been reported.

Earthquake Activity

City Distance Mag. Time & Date
No recent earthquake activity has been reported nearby.
Minimum magnitude displayed is 2.5.

Coastal Water Temperatures

Place Temperature
No Stations Reporting

Nearby Weather Stations

Station Location Temp. Heat Index Dew Point Humidity Wind Precip. Elev Updated Type
MesoWest OKEAN , O'Kean, AR 69 °F - - - North  at  - 0.00 in / hr 274 ft 10:00 PM CDT MADIS
MesoWest MINTRN , Minturn, AR 69 °F - - - North  at  - 0.00 in / hr 259 ft 9:35 PM CDT MADIS
Rural Ravenden Springs, Ravenden Springs, AR 72.3 °F 76 °F 59 °F 63% SW  at  0.0 mph 0.00 in / hr 605 ft 11:17 PM CDT Rapid Fire
MesoWest KNOBEL , Peach Orchard, AR 65 °F - - - North  at  - 0.00 in / hr 290 ft 10:15 PM CDT MADIS
Carriage Hill, Paragould, AR 71.8 °F - 69 °F 90% South  at  1.0 mph 0.00 in / hr 300 ft 11:17 PM CDT Rapid Fire
William White Subdivision, Paragould, AR 70.2 °F - 70 °F 98% WNW  at  0.0 mph 0.00 in / hr 331 ft 11:17 PM CDT Rapid Fire

Show More Stations Show Fewer Stations